»·PEaware :: N735SN L52-L88

N735SN :: L52-L88

FLIGHT INFORMATION

Flight Status: Arrived
Operator: Privately registered:
United States
More flights under this callsign
Pilot: Peter N. (21020)
Aircraft: CESSNA 172 SKYHAWK
(C172)
More flights by this aircraft type
Origin: L52 Oceano Co
United States
Destination: L88 New Cuyama
United States
More flights between these airports :: More routes between these airports
Route:
File this flight plan on PilotEdge
Remarks: Sample flight plan
Altitude:
(Current/Filed)
5,500ft
Speed:
(Current/Filed)
115kts
Departed: 08-Nov-18 04:27 PM
Arrived: 08-Nov-18 04:54 PM
Distance/Time
Traveled:
47nm/0:27
Distance/Time
To Go:
Arrived

Flight Plot

Page will automatically refresh every two minutes.


Map Options




Map Legend


Flown Route
Filed Route
Departure Airport
Arrival Airport
Navaid (VOR, NDB)
Fix

Horizontal Profiles

Position Reports

Time Latitude Longitude Heading Altitude Ground
Speed
08-Nov-18 16:18 35.103506 -120.624815 202 14ft 0kts
08-Nov-18 16:19 35.103506 -120.624815 202 14ft 0kts
08-Nov-18 16:20 35.103506 -120.624815 202 14ft 0kts
08-Nov-18 16:21 35.103506 -120.624815 202 14ft 0kts
08-Nov-18 16:22 35.103506 -120.624815 202 14ft 0kts
08-Nov-18 16:23 35.103506 -120.624815 202 14ft 0kts
08-Nov-18 16:24 35.103502 -120.624817 202 14ft 0kts
08-Nov-18 16:25 35.103502 -120.624817 202 14ft 0kts
08-Nov-18 16:26 35.103502 -120.624817 202 14ft 0kts
08-Nov-18 16:27 35.103346 -120.625302 205 14ft 0kts
08-Nov-18 16:28 35.103346 -120.625302 205 14ft 0kts
08-Nov-18 16:29 35.102877 -120.624792 123 14ft 34kts
08-Nov-18 16:30 35.089243 -120.601574 126 852ft 95kts
08-Nov-18 16:31 35.085598 -120.566794 88 1466ft 114kts
08-Nov-18 16:32 35.083117 -120.528811 97 2164ft 110kts
08-Nov-18 16:33 35.078076 -120.492145 99 2860ft 109kts
08-Nov-18 16:34 35.072283 -120.455965 100 3560ft 107kts
08-Nov-18 16:35 35.066350 -120.420515 100 4258ft 106kts
08-Nov-18 16:36 35.060438 -120.385715 100 4954ft 104kts
08-Nov-18 16:37 35.054590 -120.351465 100 5651ft 102kts
08-Nov-18 16:38 35.048660 -120.317039 101 6189ft 104kts
08-Nov-18 16:39 35.043137 -120.284677 101 6979ft 93kts
08-Nov-18 16:40 35.037995 -120.252215 100 7501ft 109kts
08-Nov-18 16:41 35.031414 -120.212017 101 7507ft 124kts
08-Nov-18 16:42 35.024315 -120.170984 101 7506ft 123kts
08-Nov-18 16:43 35.017274 -120.130430 101 7505ft 123kts
08-Nov-18 16:44 35.010159 -120.089545 101 7505ft 123kts
08-Nov-18 16:45 35.003012 -120.048562 101 7505ft 123kts
08-Nov-18 16:46 34.995858 -120.007629 101 7504ft 123kts
08-Nov-18 16:47 34.988118 -119.963824 102 6725ft 132kts
08-Nov-18 16:48 34.980466 -119.920361 102 5925ft 131kts
08-Nov-18 16:49 34.973090 -119.878422 101 5452ft 113kts
08-Nov-18 16:50 34.966170 -119.839073 101 4881ft 128kts
08-Nov-18 16:51 34.959018 -119.798720 102 4080ft 119kts
08-Nov-18 16:52 34.952094 -119.759599 102 3278ft 117kts
08-Nov-18 16:53 34.945274 -119.722730 108 2833ft 98kts
08-Nov-18 16:54 34.934548 -119.692095 115 2660ft 102kts
08-Nov-18 16:55 34.927148 -119.666302 19 2572ft 78kts
08-Nov-18 16:56 34.938381 -119.681756 297 2195ft 56kts
08-Nov-18 16:57 34.941971 -119.690505 304 2158ft 12kts
08-Nov-18 16:58 34.942908 -119.690829 109 2155ft 1kts
08-Nov-18 16:59 34.942611 -119.690541 24 2156ft 0kts
08-Nov-18 17:00 34.942611 -119.690541 24 2156ft 0kts
08-Nov-18 17:01 34.942611 -119.690541 24 2156ft 0kts
08-Nov-18 17:02 34.942611 -119.690541 24 2156ft 0kts
08-Nov-18 17:03 34.942611 -119.690541 24 2156ft 0kts
08-Nov-18 17:04 34.942611 -119.690541 24 2156ft 0kts
08-Nov-18 17:05 34.942611 -119.690541 24 2156ft 0kts
08-Nov-18 17:06 34.942611 -119.690541 24 2156ft 0kts
08-Nov-18 17:07 34.942611 -119.690541 24 2156ft 0kts
08-Nov-18 17:08 34.942611 -119.690541 24 2156ft 0kts
08-Nov-18 17:09 34.942611 -119.690541 24 2156ft 0kts
08-Nov-18 17:10 34.942611 -119.690541 24 2156ft 0kts
08-Nov-18 17:11 34.942611 -119.690541 24 2156ft 0kts

Navigation Log

Ident Type
Flight plan parsing failed, navigation log unavailable